MAPA DE AEROPUERTO

INFORMACIÓN METAR y TAF


Deprecated: The each() function is deprecated. This message will be suppressed on further calls in /home/customer/www/clickair-va.com/public_html/VAM/vam/helpers/get_metar.php on line 20
METAR FOR FMMT
ADDS - METARS form results

(0316 UTC 25 May 2022)
Data provider http://aviationweather.gov/metar/data/
 
METAR text: FMMT 250300Z 26003KT 9999 FEW017 SCT033 20/19 Q1017 NOSIG
Conditions at: FMMT (TAMATAVE/TOAMASI, MG) observed 0300 UTC 25 May 2022
Temperature: 20.0°C (68°F)
Dewpoint: 19.0°C (66°F) [RH = 94%]
Pressure (altimeter): 30.03 inches Hg (1017.0 mb)
Winds: from the W (260 degrees) at 3 MPH (3 knots; 1.5 m/s)
Visibility: 6 or more miles (10+ km)
Ceiling: at least 12,000 feet AGL
Clouds: few clouds at 1700 feet AGL
scattered clouds at 3300 feet AGL
Weather: no significant weather observed at this time

Forecast for: FMMT (TAMATAVE/TOAMASI, MG)
Text: TAF FMMT 242300Z 2500/2524 VRB05KT 9999 FEW017 SCT033
Forecast period: 0000 UTC 25 May 2022 to 0000 UTC 26 May 2022
Forecast type: FROM: standard forecast or significant change
Winds: variable direction winds at 6 MPH (5 knots; 2.6 m/s)
Visibility: 6 or more miles (10+ km)
Ceiling: at least 12,000 feet AGL
Clouds: few clouds at 1700 feet AGL
scattered clouds at 3300 feet AGL
Weather: no significant weather forecast for this period